KSMF/SMF METAR and TAF weather

Enter ICAO airport designator
Station Type Date Time Source
KSMF METAR 2021/05/14 03:53 UTC NOAA

KSMF 140353Z 17010KT 10SM CLR 19/10 A2987 RMK AO2 SLP114 T01890100


Station Type Date Time Source
KSMF Decoded METAR 2021/05/14 03:53 UTC NOAA

SACRAMENTO INTERNATIONAL AIRPORT, CA, United States (KSMF) 38-42N 121-36W 6M
May 13, 2021 - 11:53 PM EDT / 2021.05.14 0353 UTC
Wind: from the S (170 degrees) at 12 MPH (10 KT):0
Visibility: 10 mile(s):0
Sky conditions: clear
Temperature: 66.0 F (18.9 C)
Dew Point: 50.0 F (10.0 C)
Relative Humidity: 56%
Pressure (altimeter): 29.87 in. Hg (1011 hPa)
ob: KSMF 140353Z 17010KT 10SM CLR 19/10 A2987 RMK AO2 SLP114 T01890100
cycle: 4

Station Type Date Time Source
KSMF TAF 2021/05/13 18:30 UTC NOAA

TAF KSMF 131728Z 1318/1418 18009KT P6SM SKC
FM140100 17012KT P6SM SKC
FM141200 16007KT P6SM SKC

Example: see airport list